createdAt,value
2022-10-19T00:04:51.422Z,12.73
2022-10-19T00:09:54.210Z,10.68
2022-10-19T00:14:58.572Z,9.85
2022-10-19T00:20:01.271Z,8.32
2022-10-19T00:25:04.281Z,7.88
2022-10-19T00:30:09.863Z,8.50
2022-10-19T00:35:12.591Z,10.32
2022-10-19T00:40:15.305Z,8.88
2022-10-19T00:45:19.387Z,6.50
2022-10-19T00:50:22.515Z,9.02
2022-10-19T00:55:25.606Z,7.90
2022-10-19T01:00:29.809Z,9.65
2022-10-19T01:05:33.762Z,7.63
2022-10-19T01:10:47.010Z,9.35
2022-10-19T01:15:55.903Z,6.70
2022-10-19T01:21:15.598Z,7.03
2022-10-19T01:26:31.570Z,6.55
2022-10-19T01:31:39.330Z,5.60
2022-10-19T01:36:44.432Z,6.45
2022-10-19T01:41:50.224Z,6.13
2022-10-19T01:46:56.674Z,6.18
2022-10-19T01:52:01.898Z,6.63
2022-10-19T01:57:07.259Z,4.45
2022-10-19T02:02:12.041Z,8.00
2022-10-19T02:07:14.856Z,5.95
2022-10-19T02:12:18.272Z,5.00
2022-10-19T02:17:24.935Z,5.35
2022-10-19T02:22:27.689Z,5.05
2022-10-19T02:27:30.783Z,6.68
2022-10-19T02:32:35.141Z,5.00
2022-10-19T02:37:38.175Z,3.97
2022-10-19T02:42:44.343Z,4.00
2022-10-19T02:47:51.137Z,5.85
2022-10-19T02:52:53.822Z,3.63
2022-10-19T02:57:57.266Z,5.18
2022-10-19T03:03:02.854Z,4.35
2022-10-19T03:08:06.206Z,5.00
2022-10-19T03:13:08.974Z,4.93
2022-10-19T03:18:13.030Z,3.72
2022-10-19T03:23:15.905Z,5.57
2022-10-19T03:28:18.726Z,6.30
2022-10-19T03:33:23.139Z,4.28
2022-10-19T03:38:25.847Z,4.50
2022-10-19T03:43:28.618Z,4.88
2022-10-19T03:48:32.664Z,5.65
2022-10-19T03:53:35.858Z,5.57
2022-10-19T03:58:39.315Z,8.15
2022-10-19T04:03:43.548Z,5.18
2022-10-19T04:08:49.990Z,4.55
2022-10-19T04:13:53.726Z,5.38
2022-10-19T04:18:57.918Z,5.60
2022-10-19T04:24:02.303Z,4.63
2022-10-19T04:29:05.213Z,4.75
2022-10-19T04:34:09.732Z,5.82
2022-10-19T04:39:12.855Z,5.90
2022-10-19T04:44:15.685Z,4.93
2022-10-19T04:49:20.497Z,4.50
2022-10-19T04:54:23.418Z,5.10
2022-10-19T04:59:26.226Z,5.97
2022-10-19T05:04:30.335Z,4.90
2022-10-19T05:09:33.149Z,6.38
2022-10-19T05:14:37.869Z,4.80
2022-10-19T05:19:44.650Z,4.72
2022-10-19T05:24:47.366Z,4.15
2022-10-19T05:29:50.063Z,2.67
2022-10-19T05:34:54.090Z,2.60
2022-10-19T05:39:56.770Z,2.72
2022-10-19T05:44:59.424Z,3.50
2022-10-19T05:50:03.482Z,4.05
2022-10-19T05:55:07.322Z,3.05
2022-10-19T06:00:11.706Z,3.53
2022-10-19T06:05:18.640Z,3.75
2022-10-19T06:10:21.594Z,5.43
2022-10-19T06:15:24.266Z,3.25
2022-10-19T06:20:29.448Z,3.60
2022-10-19T06:25:32.313Z,3.33
2022-10-19T06:30:35.066Z,5.43
2022-10-19T06:35:42.256Z,3.75
2022-10-19T06:40:45.023Z,3.28
2022-10-19T06:45:47.665Z,3.35
2022-10-19T06:50:58.330Z,6.47
2022-10-19T06:56:01.904Z,2.83
2022-10-19T07:01:07.467Z,3.25
2022-10-19T07:06:13.100Z,4.22
2022-10-19T07:11:18.404Z,3.28
2022-10-19T07:16:21.758Z,3.28
2022-10-19T07:21:25.988Z,5.57
2022-10-19T07:26:30.480Z,4.07
2022-10-19T07:31:33.521Z,2.35
2022-10-19T07:36:37.859Z,3.15
2022-10-19T07:41:40.765Z,2.67
2022-10-19T07:46:44.020Z,2.17
2022-10-19T07:51:48.191Z,1.90
2022-10-19T07:56:50.911Z,3.08
2022-10-19T08:01:54.535Z,2.30
2022-10-19T08:06:58.630Z,2.13
2022-10-19T08:12:01.387Z,2.10
2022-10-19T08:17:04.058Z,4.68
2022-10-19T08:22:08.208Z,2.58
2022-10-19T08:27:10.923Z,3.50
2022-10-19T08:32:22.916Z,2.72
2022-10-19T08:37:40.789Z,2.45
2022-10-19T08:42:53.179Z,2.75
2022-10-19T08:48:01.326Z,2.40
2022-10-19T08:53:07.160Z,2.42
2022-10-19T08:58:20.878Z,2.08
2022-10-19T09:03:37.574Z,2.28
2022-10-19T09:08:51.914Z,2.17
2022-10-19T09:14:05.616Z,2.17
2022-10-19T09:19:14.367Z,2.95
2022-10-19T09:24:28.932Z,2.75
2022-10-19T09:29:38.161Z,2.60
2022-10-19T09:34:44.889Z,3.50
2022-10-19T09:39:53.962Z,2.35
2022-10-19T09:44:59.605Z,1.90
2022-10-19T09:50:15.563Z,3.08
2022-10-19T09:55:28.601Z,2.17
2022-10-19T10:00:37.597Z,2.28
2022-10-19T10:05:41.045Z,3.20
2022-10-19T10:10:47.939Z,2.03
2022-10-19T10:15:53.326Z,2.20
2022-10-19T10:21:02.577Z,2.85
2022-10-19T10:26:17.729Z,1.73
2022-10-19T10:31:23.407Z,3.78
2022-10-19T10:36:26.819Z,2.47
2022-10-19T10:41:35.713Z,2.58
2022-10-19T10:46:43.440Z,4.43
2022-10-19T10:51:52.200Z,2.13
2022-10-19T10:57:13.715Z,2.28
2022-10-19T11:02:27.436Z,2.50
2022-10-19T11:07:31.556Z,3.50
2022-10-19T11:12:39.542Z,2.53
2022-10-19T11:17:52.403Z,3.33
2022-10-19T11:23:02.553Z,2.95
2022-10-19T11:28:19.414Z,2.08
2022-10-19T11:33:34.305Z,3.35
2022-10-19T11:38:44.058Z,3.20
2022-10-19T11:43:57.113Z,2.90
2022-10-19T11:49:07.700Z,4.20
2022-10-19T11:54:19.482Z,3.85
2022-10-19T11:59:28.911Z,8.82
2022-10-19T12:04:42.243Z,3.05
2022-10-19T12:09:51.235Z,4.65
2022-10-19T12:15:00.676Z,3.58
2022-10-19T12:20:06.701Z,2.20
2022-10-19T12:25:14.695Z,3.33
2022-10-19T12:30:21.864Z,6.47
2022-10-19T12:35:36.992Z,2.33
2022-10-19T12:40:41.658Z,4.75
2022-10-19T12:45:49.729Z,3.85
2022-10-19T12:51:16.982Z,2.72
2022-10-19T12:56:24.330Z,4.03
2022-10-19T13:01:30.448Z,4.18
2022-10-19T13:06:35.518Z,4.40
2022-10-19T13:12:21.418Z,2.75
2022-10-19T13:17:46.193Z,2.30
2022-10-19T13:22:50.872Z,3.13
2022-10-19T13:27:58.343Z,5.32
2022-10-19T13:33:41.007Z,5.85
2022-10-19T13:38:44.631Z,3.35
2022-10-19T13:44:00.662Z,2.95
2022-10-19T13:49:22.866Z,3.85
2022-10-19T13:54:35.637Z,7.78
2022-10-19T13:59:53.782Z,4.70
2022-10-19T14:05:10.877Z,3.30
2022-10-19T14:10:17.441Z,6.43
2022-10-19T14:15:25.267Z,5.97
2022-10-19T14:20:32.530Z,3.00
2022-10-19T14:25:35.334Z,4.65
2022-10-19T14:30:44.948Z,2.95
2022-10-19T14:35:50.602Z,6.38
2022-10-19T14:40:53.383Z,3.90
2022-10-19T14:46:14.432Z,5.30
2022-10-19T14:51:30.047Z,3.33
2022-10-19T14:56:35.312Z,3.50
2022-10-19T15:01:38.040Z,3.70
2022-10-19T15:06:43.125Z,5.03
2022-10-19T15:11:49.688Z,4.90
2022-10-19T15:16:54.069Z,2.78
2022-10-19T15:22:19.515Z,4.70
2022-10-19T15:27:23.632Z,19.60
2022-10-19T15:32:29.203Z,23.25
2022-10-19T15:37:33.363Z,19.70
2022-10-19T15:42:38.732Z,16.15
2022-10-19T15:48:11.514Z,12.45
2022-10-19T15:53:15.631Z,14.07
2022-10-19T15:58:18.883Z,11.23
2022-10-19T16:03:21.559Z,10.63
2022-10-19T16:08:25.685Z,11.50
2022-10-19T16:13:28.460Z,8.80
2022-10-19T16:18:31.131Z,8.23
2022-10-19T16:23:39.341Z,13.27
2022-10-19T16:28:45.151Z,11.65
2022-10-19T16:33:47.849Z,7.47
2022-10-19T16:38:51.876Z,5.20
2022-10-19T16:43:55.603Z,6.85
2022-10-19T16:48:58.398Z,5.78
2022-10-19T16:54:02.691Z,8.43
2022-10-19T16:59:06.993Z,6.15
2022-10-19T17:04:09.673Z,7.72
2022-10-19T17:09:40.279Z,8.68
2022-10-19T17:14:37.303Z,5.10
2022-10-19T17:19:40.290Z,5.78
2022-10-19T17:24:46.219Z,4.55
2022-10-19T17:29:49.021Z,6.80
2022-10-19T17:34:52.051Z,8.85
2022-10-19T17:39:56.107Z,8.25
2022-10-19T17:44:58.909Z,4.97
2022-10-19T17:50:01.632Z,6.03
2022-10-19T17:55:12.219Z,4.68
2022-10-19T18:00:16.100Z,6.30
2022-10-19T18:05:18.846Z,3.55
2022-10-19T18:10:22.963Z,3.72
2022-10-19T18:15:25.734Z,4.88
2022-10-19T18:20:28.439Z,6.75
2022-10-19T18:25:52.995Z,5.00
2022-10-19T18:30:55.206Z,6.57
2022-10-19T18:35:59.126Z,4.22
2022-10-19T18:41:04.116Z,5.13
2022-10-19T18:46:08.152Z,2.42
2022-10-19T18:51:10.906Z,6.40
2022-10-19T18:56:17.035Z,4.63
2022-10-19T19:01:22.833Z,2.63
2022-10-19T19:06:28.892Z,4.55
2022-10-19T19:11:36.859Z,3.63
2022-10-19T19:16:40.962Z,4.28
2022-10-19T19:21:44.981Z,3.55
2022-10-19T19:26:51.027Z,3.35
2022-10-19T19:31:54.383Z,4.50
2022-10-19T19:36:57.102Z,3.17
2022-10-19T19:42:01.110Z,2.97
2022-10-19T19:47:03.826Z,5.00
2022-10-19T19:52:06.598Z,2.50
2022-10-19T19:57:11.286Z,3.65
2022-10-19T20:02:16.318Z,3.88
2022-10-19T20:07:19.002Z,3.10
2022-10-19T20:12:23.149Z,3.67
2022-10-19T20:17:25.931Z,2.58
2022-10-19T20:22:28.656Z,4.68
2022-10-19T20:27:35.628Z,3.20
2022-10-19T20:32:39.135Z,3.40
2022-10-19T20:37:41.859Z,3.97
2022-10-19T20:42:46.127Z,3.47
2022-10-19T20:47:48.942Z,6.47
2022-10-19T20:52:51.720Z,4.07
2022-10-19T20:57:55.877Z,4.28
2022-10-19T21:02:59.350Z,3.05
2022-10-19T21:08:02.223Z,3.40
2022-10-19T21:13:06.362Z,4.85
2022-10-19T21:18:09.160Z,2.70
2022-10-19T21:23:11.834Z,4.80
2022-10-19T21:28:15.895Z,3.58
2022-10-19T21:33:18.726Z,43.63
2022-10-19T21:38:21.437Z,95.22
2022-10-19T21:43:25.710Z,81.53
2022-10-19T21:48:28.405Z,70.53
2022-10-19T21:53:31.092Z,71.68
2022-10-19T21:58:35.258Z,75.72
2022-10-19T22:03:38.000Z,68.20
2022-10-19T22:08:41.619Z,54.03
2022-10-19T22:13:45.703Z,62.55
2022-10-19T22:18:48.817Z,57.75
2022-10-19T22:23:53.213Z,58.47
2022-10-19T22:28:58.070Z,40.42
2022-10-19T22:34:01.154Z,53.15
2022-10-19T22:39:04.510Z,41.53
2022-10-19T22:44:08.674Z,38.90
2022-10-19T22:49:11.726Z,43.33
2022-10-19T22:54:14.466Z,34.72
2022-10-19T22:59:18.632Z,34.65
2022-10-19T23:04:21.455Z,37.75
2022-10-19T23:09:24.346Z,31.15
2022-10-19T23:14:28.486Z,29.52
2022-10-19T23:19:31.194Z,34.30
2022-10-19T23:24:33.949Z,29.63
2022-10-19T23:29:38.051Z,31.95
2022-10-19T23:34:43.162Z,26.13
2022-10-19T23:39:48.659Z,25.85
2022-10-19T23:44:52.767Z,24.45
2022-10-19T23:49:55.495Z,24.58
2022-10-19T23:54:58.222Z,22.45
